Aérodrome :
LOGIN :

S'inscrire | Disclaimer

   EN    FR    IT 

 










Légende :    VFR   VFR Marginal   IFR   IFR Intensif   IFR Très Intensif
Visi : 
Plafond : 
>= 8 km
>= 3000ft
5 à 8 km
1000 à 3000 ft
1500m à 5 km
500 à 1000 ft
800 à 1500m
200 à 500 ft
< 800m
< 200 ft
Symboles :   Orages  Brouillard  Fortes neiges  Fortes précipitations  Vent > 20 kt
SIGMETs :   Divers  Orages  Givrage  Turbulence  Onde Orograph.  Cendres Volcan.






- Altitude de l'aérodrome : 122 ft
- Code IATA : TXL


EDDT - Berlin Tegel Int.

DERNIER METAR :
  • 250550Z 26010KT 230V320 9999 FEW018 BKN022 09/07 Q0997 TEMPO SHRA BKN030CB

METARs EXPIRÉS :
  • 250520Z 22012KT 9999 FEW031 SCT038 09/07 Q0996 NOSIG
  • 250450Z 21011KT CAVOK 08/07 Q0997 NOSIG
  • 250420Z 23011KT 9999 FEW048 09/07 Q0997 NOSIG
  • 250350Z 23015KT 9999 -RA FEW040 09/07 Q0997 TEMPO 23015G25KT
  • 250320Z 22013KT 9999 FEW033 BKN060 09/08 Q0997

TAF TAF EDDT
Valide du 25 à 06h jusqu'au 26 à 06h UTC


250500Z 2506/2606 24015G30KT 9999 SCT030
BECMG 2518/2520 24013KT
BECMG 2522/2524 22008KT



MET'MAP, la Météo Aéronautique d'un coup d'oeil ! - Copyright ORBIFLY Décembre 2007 - Disclaimer

ORBIFLY MET'MAP TEAM :

Programmation & Développement : Alexandra Zaïnal
Sur une idée originale de : Baudouin d'Aumeries
Assistance à la programmation : Marc-Olivier Méhu
Soutien technique & logistique : Manuel Goepfert

Contact : metmap@orbifly.com




SOURCES & CREDITS :

   NOAA